createdAt,value
2023-07-23T00:01:00.345Z,10.93
2023-07-23T00:03:27.257Z,14.85
2023-07-23T00:05:54.151Z,14.05
2023-07-23T00:08:21.009Z,12.80
2023-07-23T00:10:47.928Z,11.40
2023-07-23T00:13:14.809Z,11.18
2023-07-23T00:15:41.682Z,14.18
2023-07-23T00:18:08.585Z,12.13
2023-07-23T00:20:35.427Z,12.93
2023-07-23T00:23:02.388Z,14.60
2023-07-23T00:25:29.322Z,11.30
2023-07-23T00:27:56.189Z,10.88
2023-07-23T00:30:23.163Z,11.77
2023-07-23T00:32:50.314Z,14.63
2023-07-23T00:35:17.552Z,15.25
2023-07-23T00:37:44.435Z,14.57
2023-07-23T00:40:12.321Z,12.25
2023-07-23T00:42:39.753Z,12.43
2023-07-23T00:45:07.103Z,12.18
2023-07-23T00:47:36.164Z,10.75
2023-07-23T00:50:04.370Z,13.10
2023-07-23T00:52:33.797Z,12.13
2023-07-23T00:55:01.950Z,15.10
2023-07-23T00:57:34.240Z,9.82
2023-07-23T01:00:01.952Z,11.55
2023-07-23T01:02:36.243Z,9.65
2023-07-23T01:05:04.717Z,11.93
2023-07-23T01:07:35.257Z,12.50
2023-07-23T01:10:04.982Z,12.40
2023-07-23T01:12:35.468Z,11.48
2023-07-23T01:15:05.996Z,10.27
2023-07-23T01:17:37.881Z,10.77
2023-07-23T01:20:07.231Z,14.25
2023-07-23T01:22:35.369Z,13.50
2023-07-23T01:25:08.198Z,13.43
2023-07-23T01:27:35.596Z,9.95
2023-07-23T01:30:02.613Z,14.88
2023-07-23T01:32:37.577Z,15.20
2023-07-23T01:35:11.055Z,10.80
2023-07-23T01:37:38.167Z,13.40
2023-07-23T01:40:05.809Z,14.27
2023-07-23T01:42:33.674Z,12.43
2023-07-23T01:45:05.015Z,18.65
2023-07-23T01:47:34.624Z,15.57
2023-07-23T01:50:01.637Z,12.85
2023-07-23T01:52:34.204Z,13.15
2023-07-23T01:55:01.992Z,13.95
2023-07-23T01:57:33.002Z,11.52
2023-07-23T02:00:00.101Z,12.57
2023-07-23T02:02:27.318Z,15.63
2023-07-23T02:04:54.339Z,13.07
2023-07-23T02:07:21.591Z,10.80
2023-07-23T02:09:52.158Z,8.45
2023-07-23T02:12:19.220Z,14.90
2023-07-23T02:14:46.394Z,13.98
2023-07-23T02:17:13.536Z,15.88
2023-07-23T02:19:40.583Z,13.93
2023-07-23T02:22:07.986Z,13.63
2023-07-23T02:24:34.940Z,14.18
2023-07-23T02:27:01.802Z,11.13
2023-07-23T02:29:28.627Z,14.02
2023-07-23T02:31:55.600Z,17.88
2023-07-23T02:34:22.654Z,16.92
2023-07-23T02:36:49.586Z,14.20
2023-07-23T02:39:16.530Z,10.68
2023-07-23T02:41:43.513Z,12.68
2023-07-23T02:44:10.461Z,11.57
2023-07-23T02:46:37.425Z,11.32
2023-07-23T02:49:04.553Z,13.32
2023-07-23T02:51:31.753Z,14.00
2023-07-23T02:53:58.898Z,11.23
2023-07-23T02:56:25.785Z,10.80
2023-07-23T02:58:52.658Z,11.38
2023-07-23T03:01:21.233Z,9.40
2023-07-23T03:03:48.777Z,11.98
2023-07-23T03:06:16.858Z,8.80
2023-07-23T03:08:43.846Z,12.02
2023-07-23T03:11:10.864Z,11.88
2023-07-23T03:13:37.735Z,12.95
2023-07-23T03:16:05.349Z,10.35
2023-07-23T03:18:32.430Z,9.40
2023-07-23T03:20:59.856Z,11.32
2023-07-23T03:23:27.497Z,10.60
2023-07-23T03:25:54.489Z,10.98
2023-07-23T03:28:21.514Z,11.20
2023-07-23T03:30:49.147Z,10.23
2023-07-23T03:33:16.025Z,10.27
2023-07-23T03:35:42.876Z,9.73
2023-07-23T03:38:09.711Z,12.63
2023-07-23T03:40:36.697Z,8.95
2023-07-23T03:43:03.625Z,11.70
2023-07-23T03:45:30.706Z,13.30
2023-07-23T03:47:57.617Z,13.55
2023-07-23T03:50:25.565Z,8.65
2023-07-23T03:52:52.420Z,11.32
2023-07-23T03:55:21.075Z,11.68
2023-07-23T03:57:48.537Z,8.25
2023-07-23T04:00:15.575Z,10.10
2023-07-23T04:02:43.506Z,9.93
2023-07-23T04:05:10.603Z,11.57
2023-07-23T04:07:37.468Z,9.18
2023-07-23T04:10:04.986Z,9.27
2023-07-23T04:12:34.891Z,7.85
2023-07-23T04:15:05.573Z,10.02
2023-07-23T04:17:35.862Z,9.10
2023-07-23T04:20:03.212Z,10.77
2023-07-23T04:22:32.952Z,8.63
2023-07-23T04:25:00.164Z,8.88
2023-07-23T04:27:27.242Z,7.90
2023-07-23T04:29:55.147Z,8.15
2023-07-23T04:32:22.063Z,9.65
2023-07-23T04:34:49.343Z,9.52
2023-07-23T04:37:16.767Z,13.30
2023-07-23T04:39:43.626Z,11.85
2023-07-23T04:42:10.534Z,8.93
2023-07-23T04:44:37.495Z,7.75
2023-07-23T04:47:04.904Z,9.60
2023-07-23T04:49:31.795Z,9.40
2023-07-23T04:51:58.798Z,11.80
2023-07-23T04:54:25.679Z,11.60
2023-07-23T04:56:52.531Z,10.80
2023-07-23T04:59:19.353Z,8.07
2023-07-23T05:01:46.275Z,8.43
2023-07-23T05:04:13.241Z,11.43
2023-07-23T05:06:40.189Z,8.65
2023-07-23T05:09:07.251Z,12.50
2023-07-23T05:11:34.153Z,12.40
2023-07-23T05:14:01.318Z,14.95
2023-07-23T05:16:28.254Z,8.90
2023-07-23T05:18:55.059Z,13.82
2023-07-23T05:21:22.525Z,10.68
2023-07-23T05:23:49.377Z,11.45
2023-07-23T05:26:16.195Z,8.80
2023-07-23T05:28:43.096Z,10.20
2023-07-23T05:31:10.031Z,9.85
2023-07-23T05:33:36.878Z,6.22
2023-07-23T05:36:03.909Z,9.05
2023-07-23T05:38:30.773Z,8.95
2023-07-23T05:40:59.001Z,6.85
2023-07-23T05:43:29.056Z,12.77
2023-07-23T05:45:58.120Z,6.38
2023-07-23T05:48:25.077Z,7.25
2023-07-23T05:50:52.249Z,7.28
2023-07-23T05:53:19.214Z,8.02
2023-07-23T05:55:46.119Z,8.35
2023-07-23T05:58:12.969Z,7.10
2023-07-23T06:00:39.969Z,10.02
2023-07-23T06:03:07.021Z,9.15
2023-07-23T06:05:34.041Z,8.32
2023-07-23T06:08:00.874Z,7.63
2023-07-23T06:10:27.777Z,10.65
2023-07-23T06:12:54.835Z,9.77
2023-07-23T06:15:22.158Z,9.50
2023-07-23T06:17:49.405Z,8.38
2023-07-23T06:20:16.540Z,8.13
2023-07-23T06:22:43.534Z,8.75
2023-07-23T06:25:10.483Z,8.68
2023-07-23T06:27:37.427Z,8.57
2023-07-23T06:30:04.577Z,10.52
2023-07-23T06:32:32.806Z,10.77
2023-07-23T06:34:59.674Z,8.10
2023-07-23T06:37:26.627Z,16.52
2023-07-23T06:39:53.462Z,8.85
2023-07-23T06:42:20.317Z,11.73
2023-07-23T06:44:47.288Z,8.13
2023-07-23T06:47:15.101Z,8.43
2023-07-23T06:49:41.975Z,10.25
2023-07-23T06:52:09.040Z,10.07
2023-07-23T06:54:39.307Z,8.20
2023-07-23T06:57:06.794Z,10.48
2023-07-23T06:59:33.804Z,10.82
2023-07-23T07:02:00.902Z,11.98
2023-07-23T07:04:30.320Z,10.88
2023-07-23T07:06:57.430Z,12.40
2023-07-23T07:09:24.426Z,13.32
2023-07-23T07:11:52.220Z,8.10
2023-07-23T07:14:19.137Z,10.40
2023-07-23T07:16:46.199Z,7.78
2023-07-23T07:19:13.253Z,11.75
2023-07-23T07:21:40.174Z,9.88
2023-07-23T07:24:07.887Z,7.90
2023-07-23T07:26:34.788Z,9.23
2023-07-23T07:29:01.719Z,16.35
2023-07-23T07:31:28.905Z,11.30
2023-07-23T07:33:56.024Z,9.55
2023-07-23T07:36:22.904Z,12.93
2023-07-23T07:38:49.814Z,12.45
2023-07-23T07:41:16.833Z,9.23
2023-07-23T07:43:43.873Z,9.85
2023-07-23T07:46:10.913Z,10.73
2023-07-23T07:48:38.970Z,10.38
2023-07-23T07:51:08.380Z,10.45
2023-07-23T07:53:37.475Z,10.38
2023-07-23T07:56:05.214Z,9.57
2023-07-23T07:58:32.856Z,9.15
2023-07-23T08:01:01.518Z,7.90
2023-07-23T08:03:31.350Z,9.40
2023-07-23T08:05:59.659Z,9.68
2023-07-23T08:08:28.893Z,5.30
2023-07-23T08:10:58.123Z,11.23
2023-07-23T08:13:25.887Z,8.70
2023-07-23T08:15:56.827Z,7.70
2023-07-23T08:18:25.508Z,12.80
2023-07-23T08:20:53.425Z,9.18
2023-07-23T08:23:20.694Z,9.95
2023-07-23T08:25:50.697Z,9.85
2023-07-23T08:28:23.674Z,9.77
2023-07-23T08:30:51.366Z,9.10
2023-07-23T08:33:23.883Z,8.10
2023-07-23T08:35:51.195Z,10.40
2023-07-23T08:38:18.373Z,10.73
2023-07-23T08:40:46.628Z,14.57
2023-07-23T08:43:22.904Z,10.13
2023-07-23T08:45:52.658Z,6.65
2023-07-23T08:48:21.634Z,8.45
2023-07-23T08:50:50.237Z,7.97
2023-07-23T08:53:18.852Z,6.93
2023-07-23T08:55:47.620Z,7.55
2023-07-23T08:58:19.575Z,7.90
2023-07-23T09:00:48.728Z,6.88
2023-07-23T09:03:21.265Z,7.35
2023-07-23T09:05:48.480Z,6.97
2023-07-23T09:08:15.338Z,8.95
2023-07-23T09:10:42.339Z,7.35
2023-07-23T09:13:15.695Z,9.73
2023-07-23T09:15:43.862Z,8.43
2023-07-23T09:18:10.683Z,7.55
2023-07-23T09:20:39.042Z,9.23
2023-07-23T09:23:09.041Z,11.73
2023-07-23T09:25:35.986Z,7.88
2023-07-23T09:28:03.564Z,6.47
2023-07-23T09:30:30.594Z,7.18
2023-07-23T09:33:07.681Z,6.95
2023-07-23T09:35:34.746Z,8.88
2023-07-23T09:38:01.622Z,10.50
2023-07-23T09:40:39.254Z,5.82
2023-07-23T09:43:06.789Z,12.40
2023-07-23T09:45:39.188Z,11.48
2023-07-23T09:48:16.547Z,10.68
2023-07-23T09:50:45.906Z,13.02
2023-07-23T09:53:16.909Z,11.82
2023-07-23T09:55:47.489Z,12.30
2023-07-23T09:58:18.413Z,11.45
2023-07-23T10:00:45.990Z,13.70
2023-07-23T10:03:16.358Z,13.18
2023-07-23T10:05:43.931Z,18.40
2023-07-23T10:08:12.950Z,13.75
2023-07-23T10:10:39.819Z,12.40
2023-07-23T10:13:06.785Z,11.32
2023-07-23T10:15:34.946Z,13.15
2023-07-23T10:18:02.753Z,15.27
2023-07-23T10:20:32.352Z,13.23
2023-07-23T10:22:59.682Z,16.65
2023-07-23T10:25:34.610Z,12.75
2023-07-23T10:28:08.661Z,12.98
2023-07-23T10:33:25.403Z,11.65
2023-07-23T10:35:56.085Z,12.07
2023-07-23T10:38:31.607Z,10.07
2023-07-23T10:40:59.715Z,10.00
2023-07-23T10:43:38.411Z,12.13
2023-07-23T10:46:07.082Z,14.90
2023-07-23T10:48:41.457Z,10.50
2023-07-23T10:51:13.099Z,8.55
2023-07-23T10:53:42.034Z,7.80
2023-07-23T10:56:29.123Z,10.77
2023-07-23T10:58:58.267Z,12.48
2023-07-23T11:01:27.876Z,11.27
2023-07-23T11:03:58.672Z,12.00
2023-07-23T11:06:27.071Z,10.20
2023-07-23T11:08:58.003Z,9.43
2023-07-23T11:11:32.276Z,10.13
2023-07-23T11:13:59.236Z,10.15
2023-07-23T11:16:27.461Z,11.50
2023-07-23T11:18:56.007Z,8.43
2023-07-23T11:21:23.081Z,12.40
2023-07-23T11:23:49.894Z,8.38
2023-07-23T11:26:18.074Z,10.52
2023-07-23T11:28:45.616Z,10.07
2023-07-23T11:31:12.490Z,10.55
2023-07-23T11:33:39.702Z,10.73
2023-07-23T11:36:06.502Z,11.10
2023-07-23T11:38:33.899Z,9.07
2023-07-23T11:41:01.767Z,10.00
2023-07-23T11:43:29.106Z,8.95
2023-07-23T11:45:56.106Z,9.65
2023-07-23T11:48:23.940Z,9.68
2023-07-23T11:50:51.471Z,10.13
2023-07-23T11:53:32.467Z,7.13
2023-07-23T11:56:14.511Z,10.10
2023-07-23T11:58:42.189Z,9.68
2023-07-23T12:01:10.683Z,9.95
2023-07-23T12:03:43.370Z,10.40
2023-07-23T12:06:13.176Z,12.55
2023-07-23T12:08:40.514Z,15.85
2023-07-23T12:11:16.836Z,15.13
2023-07-23T12:13:50.982Z,14.20
2023-07-23T12:16:39.024Z,13.07
2023-07-23T12:19:11.697Z,15.80
2023-07-23T12:21:40.725Z,12.07
2023-07-23T12:24:24.250Z,13.95
2023-07-23T12:26:53.444Z,10.77
2023-07-23T12:29:22.167Z,10.43
2023-07-23T12:31:50.653Z,12.20
2023-07-23T12:34:17.929Z,15.48
2023-07-23T12:36:45.308Z,13.50
2023-07-23T12:39:12.555Z,13.55
2023-07-23T12:41:40.546Z,12.60
2023-07-23T12:44:08.661Z,12.10
2023-07-23T12:46:35.525Z,12.73
2023-07-23T12:49:02.457Z,10.40
2023-07-23T12:51:29.376Z,12.35
2023-07-23T12:53:56.327Z,11.82
2023-07-23T12:56:23.316Z,9.60
2023-07-23T12:58:50.371Z,10.27
2023-07-23T13:01:17.303Z,12.50
2023-07-23T13:03:44.419Z,10.13
2023-07-23T13:06:12.139Z,11.85
2023-07-23T13:08:39.708Z,11.60
2023-07-23T13:11:06.787Z,10.45
2023-07-23T13:13:34.481Z,9.30
2023-07-23T13:16:01.623Z,10.02
2023-07-23T13:18:28.749Z,10.27
2023-07-23T13:20:55.669Z,10.68
2023-07-23T13:23:22.865Z,9.60
2023-07-23T13:25:51.471Z,7.78
2023-07-23T13:28:18.360Z,7.80
2023-07-23T13:30:45.638Z,8.60
2023-07-23T13:33:13.315Z,6.70
2023-07-23T13:35:40.567Z,6.90
2023-07-23T13:38:07.582Z,7.90
2023-07-23T13:40:34.664Z,6.05
2023-07-23T13:43:01.672Z,5.97
2023-07-23T13:45:28.785Z,8.23
2023-07-23T13:47:55.720Z,5.88
2023-07-23T13:50:23.887Z,8.93
2023-07-23T13:52:52.199Z,6.28
2023-07-23T13:55:19.169Z,6.10
2023-07-23T13:57:47.238Z,5.60
2023-07-23T14:00:14.885Z,6.80
2023-07-23T14:02:44.333Z,5.78
2023-07-23T14:05:12.039Z,7.68
2023-07-23T14:07:39.282Z,8.05
2023-07-23T14:10:07.815Z,7.43
2023-07-23T14:12:35.246Z,7.43
2023-07-23T14:15:02.762Z,8.18
2023-07-23T14:17:33.830Z,9.48
2023-07-23T14:20:00.690Z,8.02
2023-07-23T14:22:27.588Z,9.43
2023-07-23T14:24:54.514Z,7.40
2023-07-23T14:27:21.450Z,7.65
2023-07-23T14:29:48.373Z,9.25
2023-07-23T14:32:15.953Z,8.43
2023-07-23T14:34:43.191Z,8.32
2023-07-23T14:37:11.178Z,11.32
2023-07-23T14:39:41.756Z,7.90
2023-07-23T14:42:09.083Z,8.70
2023-07-23T14:44:36.368Z,6.75
2023-07-23T14:47:03.804Z,8.73
2023-07-23T14:49:31.405Z,5.93
2023-07-23T14:51:58.493Z,5.65
2023-07-23T14:54:25.368Z,9.38
2023-07-23T14:56:54.267Z,7.40
2023-07-23T14:59:21.229Z,10.90
2023-07-23T15:01:48.935Z,9.68
2023-07-23T15:04:16.740Z,8.63
2023-07-23T15:06:49.049Z,6.65
2023-07-23T15:09:17.488Z,8.30
2023-07-23T15:11:45.591Z,7.20
2023-07-23T15:14:16.225Z,9.10
2023-07-23T15:16:46.702Z,8.57
2023-07-23T15:19:13.783Z,9.57
2023-07-23T15:21:40.860Z,8.18
2023-07-23T15:24:08.353Z,6.25
2023-07-23T15:26:39.261Z,8.82
2023-07-23T15:29:07.234Z,8.73
2023-07-23T15:31:35.293Z,8.07
2023-07-23T15:34:03.069Z,6.70
2023-07-23T15:36:29.996Z,7.90
2023-07-23T15:38:59.331Z,12.82
2023-07-23T15:41:26.620Z,8.52
2023-07-23T15:43:53.712Z,9.43
2023-07-23T15:46:20.796Z,10.98
2023-07-23T15:48:47.800Z,8.05
2023-07-23T15:51:14.849Z,8.52
2023-07-23T15:53:41.654Z,10.30
2023-07-23T15:56:08.538Z,11.50
2023-07-23T15:58:35.498Z,10.32
2023-07-23T16:01:02.485Z,7.13
2023-07-23T16:03:29.440Z,9.48
2023-07-23T16:05:56.529Z,8.43
2023-07-23T16:08:23.581Z,7.25
2023-07-23T16:10:50.482Z,7.50
2023-07-23T16:13:17.357Z,6.55
2023-07-23T16:15:44.283Z,8.02
2023-07-23T16:18:11.343Z,4.53
2023-07-23T16:20:38.259Z,6.25
2023-07-23T16:23:05.122Z,8.88
2023-07-23T16:25:32.013Z,6.35
2023-07-23T16:28:00.792Z,5.95
2023-07-23T16:30:27.660Z,9.50
2023-07-23T16:32:54.870Z,6.40
2023-07-23T16:35:22.182Z,7.32
2023-07-23T16:37:52.003Z,6.85
2023-07-23T16:40:20.629Z,8.95
2023-07-23T16:42:50.422Z,7.00
2023-07-23T16:45:18.379Z,6.68
2023-07-23T16:47:45.937Z,8.25
2023-07-23T16:50:13.779Z,8.23
2023-07-23T16:52:40.877Z,11.18
2023-07-23T16:55:09.004Z,8.45
2023-07-23T16:57:36.176Z,7.90
2023-07-23T17:00:03.786Z,6.95
2023-07-23T17:02:35.368Z,7.93
2023-07-23T17:05:02.326Z,9.15
2023-07-23T17:07:32.889Z,10.32
2023-07-23T17:09:59.788Z,8.13
2023-07-23T17:12:26.790Z,8.98
2023-07-23T17:14:55.480Z,8.38
2023-07-23T17:17:22.634Z,8.48
2023-07-23T17:19:50.005Z,9.52
2023-07-23T17:22:16.929Z,9.35
2023-07-23T17:24:43.946Z,7.78
2023-07-23T17:27:10.999Z,11.77
2023-07-23T17:29:37.874Z,9.88
2023-07-23T17:32:06.187Z,7.90
2023-07-23T17:34:33.106Z,9.05
2023-07-23T17:37:00.107Z,9.57
2023-07-23T17:39:28.594Z,8.93
2023-07-23T17:41:55.781Z,9.18
2023-07-23T17:44:22.740Z,11.15
2023-07-23T17:46:49.619Z,9.77
2023-07-23T17:49:16.682Z,9.57
2023-07-23T17:51:43.649Z,10.45
2023-07-23T17:54:10.550Z,12.13
2023-07-23T17:56:37.460Z,11.13
2023-07-23T17:59:04.388Z,9.40
2023-07-23T18:01:32.021Z,13.95
2023-07-23T18:04:01.924Z,15.90
2023-07-23T18:06:29.712Z,9.45
2023-07-23T18:08:56.980Z,9.27
2023-07-23T18:11:24.336Z,11.63
2023-07-23T18:13:51.425Z,9.07
2023-07-23T18:16:18.539Z,11.35
2023-07-23T18:18:45.775Z,20.52
2023-07-23T18:21:13.122Z,15.43
2023-07-23T18:23:40.466Z,10.38
2023-07-23T18:26:08.039Z,9.68
2023-07-23T18:28:37.909Z,11.57
2023-07-23T18:31:17.916Z,14.20
2023-07-23T18:33:52.400Z,14.48
2023-07-23T18:36:19.699Z,13.52
2023-07-23T18:38:46.705Z,16.60
2023-07-23T18:41:16.092Z,14.57
2023-07-23T18:43:43.357Z,11.65
2023-07-23T18:46:10.363Z,10.75
2023-07-23T18:48:37.231Z,10.38
2023-07-23T18:51:04.119Z,11.13
2023-07-23T18:53:30.998Z,10.00
2023-07-23T18:55:57.939Z,10.73
2023-07-23T18:58:24.879Z,11.40
2023-07-23T19:00:51.789Z,11.23
2023-07-23T19:03:18.659Z,13.15
2023-07-23T19:05:45.634Z,12.43
2023-07-23T19:08:12.599Z,12.82
2023-07-23T19:10:39.520Z,13.93
2023-07-23T19:13:06.376Z,13.55
2023-07-23T19:15:33.395Z,13.60
2023-07-23T19:18:00.450Z,14.20
2023-07-23T19:20:27.415Z,14.68
2023-07-23T19:22:54.411Z,12.88
2023-07-23T19:25:21.320Z,14.48
2023-07-23T19:27:50.190Z,14.02
2023-07-23T19:30:17.218Z,14.10
2023-07-23T19:32:44.149Z,13.60
2023-07-23T19:35:11.139Z,14.48
2023-07-23T19:37:38.080Z,16.50
2023-07-23T19:40:05.232Z,13.23
2023-07-23T19:42:32.413Z,17.75
2023-07-23T19:44:59.286Z,16.55
2023-07-23T19:47:26.205Z,16.42
2023-07-23T19:49:53.108Z,15.02
2023-07-23T19:52:20.026Z,15.88
2023-07-23T19:54:46.993Z,16.58
2023-07-23T19:57:17.145Z,15.38
2023-07-23T19:59:44.070Z,13.13
2023-07-23T20:02:10.927Z,12.25
2023-07-23T20:04:38.485Z,15.38
2023-07-23T20:07:06.267Z,15.80
2023-07-23T20:09:34.046Z,16.58
2023-07-23T20:12:01.422Z,16.55
2023-07-23T20:14:29.160Z,14.25
2023-07-23T20:16:56.537Z,13.95
2023-07-23T20:19:23.469Z,16.63
2023-07-23T20:21:50.336Z,16.45
2023-07-23T20:24:17.480Z,16.13
2023-07-23T20:26:44.510Z,17.80
2023-07-23T20:29:11.624Z,15.73
2023-07-23T20:31:38.867Z,18.02
2023-07-23T20:34:06.692Z,14.40
2023-07-23T20:36:34.276Z,17.33
2023-07-23T20:39:03.508Z,14.93
2023-07-23T20:41:31.205Z,14.13
2023-07-23T20:43:58.637Z,13.73
2023-07-23T20:46:29.195Z,15.45
2023-07-23T20:48:56.429Z,15.05
2023-07-23T20:51:23.533Z,16.88
2023-07-23T20:53:50.412Z,13.85
2023-07-23T20:56:17.591Z,13.73
2023-07-23T20:58:44.736Z,13.55
2023-07-23T21:01:12.233Z,12.60
2023-07-23T21:03:39.175Z,12.23
2023-07-23T21:06:06.162Z,14.23
2023-07-23T21:08:33.078Z,13.98
2023-07-23T21:11:00.027Z,10.68
2023-07-23T21:13:27.238Z,10.43
2023-07-23T21:15:56.282Z,11.05
2023-07-23T21:18:25.268Z,10.63
2023-07-23T21:20:52.612Z,9.88
2023-07-23T21:23:22.735Z,9.55
2023-07-23T21:25:49.541Z,9.55
2023-07-23T21:28:19.413Z,11.00
2023-07-23T21:30:46.296Z,11.10
2023-07-23T21:33:13.383Z,12.27
2023-07-23T21:35:42.187Z,10.38
2023-07-23T21:38:13.712Z,9.18
2023-07-23T21:40:40.687Z,11.13
2023-07-23T21:43:07.711Z,10.85
2023-07-23T21:45:34.543Z,9.95
2023-07-23T21:48:01.839Z,9.90
2023-07-23T21:50:29.215Z,10.88
2023-07-23T21:52:56.326Z,8.25
2023-07-23T21:55:23.304Z,9.63
2023-07-23T21:57:50.252Z,9.55
2023-07-23T22:00:17.960Z,8.20
2023-07-23T22:02:45.081Z,9.63
2023-07-23T22:05:12.319Z,10.15
2023-07-23T22:07:39.482Z,8.95
2023-07-23T22:10:08.591Z,10.48
2023-07-23T22:12:36.357Z,9.57
2023-07-23T22:15:03.925Z,9.88
2023-07-23T22:17:33.229Z,12.45
2023-07-23T22:20:00.249Z,10.15
2023-07-23T22:22:27.347Z,9.65
2023-07-23T22:24:54.404Z,11.30
2023-07-23T22:27:21.449Z,11.35
2023-07-23T22:29:48.432Z,10.38
2023-07-23T22:32:15.359Z,11.75
2023-07-23T22:34:42.615Z,8.88
2023-07-23T22:37:09.601Z,10.35
2023-07-23T22:39:36.640Z,10.60
2023-07-23T22:42:04.764Z,7.07
2023-07-23T22:44:31.951Z,10.35
2023-07-23T22:46:59.178Z,9.18
2023-07-23T22:49:26.226Z,6.95
2023-07-23T22:51:53.304Z,7.55
2023-07-23T22:54:20.274Z,8.00
2023-07-23T22:56:47.328Z,9.30
2023-07-23T22:59:14.402Z,7.97
2023-07-23T23:01:41.648Z,9.68
2023-07-23T23:04:08.837Z,7.25
2023-07-23T23:06:36.068Z,6.95
2023-07-23T23:09:03.045Z,7.47
2023-07-23T23:11:30.043Z,7.97
2023-07-23T23:13:57.016Z,6.43
2023-07-23T23:16:24.109Z,5.15
2023-07-23T23:18:51.263Z,8.27
2023-07-23T23:21:18.345Z,7.57
2023-07-23T23:23:45.404Z,8.98
2023-07-23T23:26:12.498Z,9.82
2023-07-23T23:28:39.535Z,7.45
2023-07-23T23:31:06.909Z,7.05
2023-07-23T23:33:34.043Z,9.30
2023-07-23T23:36:01.045Z,9.48
2023-07-23T23:38:28.058Z,9.30
2023-07-23T23:40:55.975Z,11.40
2023-07-23T23:43:23.469Z,11.32
2023-07-23T23:45:51.102Z,10.63
2023-07-23T23:48:18.473Z,9.52
2023-07-23T23:50:46.016Z,9.10
2023-07-23T23:53:14.429Z,9.57
2023-07-23T23:55:41.452Z,10.77
2023-07-23T23:58:08.819Z,7.82
